Time;durP1;ratioP1;P1;durP2;ratioP2;P2;SDS_P1;SDS_P2;PMS_P1;PMS_P2;Temp;Humidity;BMP_temperature;BMP_pressure;BME280_temperature;BME280_humidity;BME280_pressure;Samples;Min_cycle;Max_cycle;Signal;HPM_P1;HPM_P2
2021/12/04 00:00:10;;;;;;;7.65;5.10;;;2.90;91.90;;;;;;2122798;27;20171;-72
2021/12/04 00:01:17;;;;;;;9.18;5.38;;;2.90;92.10;;;;;;2122502;27;20106;-71
2021/12/04 00:02:17;;;;;;;10.65;5.80;;;2.90;92.30;;;;;;2113555;27;20020;-71
2021/12/04 00:03:18;;;;;;;8.43;4.95;;;2.90;92.10;;;;;;2122040;27;20066;-70
2021/12/04 00:04:28;;;;;;;8.10;5.20;;;2.90;92.10;;;;;;2122931;27;20084;-70
2021/12/04 00:05:29;;;;;;;7.15;4.95;;;2.90;92.10;;;;;;2122251;27;20066;-71
2021/12/04 00:06:36;;;;;;;7.60;4.93;;;2.90;92.50;;;;;;2113561;28;20028;-71
2021/12/04 00:07:38;;;;;;;8.70;5.20;;;2.90;92.40;;;;;;2122071;27;20043;-70
2021/12/04 00:08:43;;;;;;;9.20;5.55;;;2.90;92.20;;;;;;2122562;27;20023;-69
2021/12/04 00:09:46;;;;;;;8.40;5.20;;;2.90;92.50;;;;;;2121946;27;20484;-70
2021/12/04 00:10:47;;;;;;;7.55;5.32;;;2.90;92.40;;;;;;2122147;27;20035;-70
2021/12/04 00:12:02;;;;;;;9.30;5.85;;;2.90;92.40;;;;;;2121081;27;20076;-70
2021/12/04 00:13:03;;;;;;;9.18;6.15;;;2.90;92.50;;;;;;2122268;27;20046;-69
2021/12/04 00:14:04;;;;;;;8.15;5.55;;;2.80;92.60;;;;;;2113437;27;20538;-70
2021/12/04 00:15:05;;;;;;;7.50;5.47;;;2.90;92.40;;;;;;2113498;28;20042;-69
2021/12/04 00:16:05;;;;;;;9.18;6.00;;;2.80;92.50;;;;;;2121886;27;20015;-71
2021/12/04 00:17:06;;;;;;;9.05;5.45;;;2.90;92.40;;;;;;2122577;27;20021;-71
2021/12/04 00:18:07;;;;;;;8.88;5.43;;;2.90;92.50;;;;;;2121950;27;20080;-71
2021/12/04 00:19:07;;;;;;;15.50;8.07;;;2.90;92.50;;;;;;2121946;27;20077;-71
2021/12/04 00:20:09;;;;;;;11.40;6.32;;;2.90;92.60;;;;;;2122430;27;20114;-70
2021/12/04 00:21:10;;;;;;;8.32;6.05;;;2.90;92.50;;;;;;2122395;27;20038;-70
2021/12/04 00:22:10;;;;;;;11.77;6.72;;;2.90;92.30;;;;;;2121716;27;20062;-71
2021/12/04 00:23:12;;;;;;;13.80;7.80;;;2.90;92.30;;;;;;2122231;27;20027;-71
2021/12/04 00:24:12;;;;;;;11.73;7.30;;;2.90;92.40;;;;;;2121764;27;20026;-71
2021/12/04 00:25:13;;;;;;;11.15;6.53;;;2.90;92.60;;;;;;2121842;27;20027;-71
2021/12/04 00:26:14;;;;;;;10.30;6.65;;;2.90;92.50;;;;;;2121773;27;20058;-71
2021/12/04 00:27:14;;;;;;;8.85;6.20;;;2.90;92.60;;;;;;2121735;27;20034;-71
2021/12/04 00:28:15;;;;;;;14.95;8.50;;;2.90;92.50;;;;;;2121751;27;20043;-71
2021/12/04 00:29:15;;;;;;;12.25;7.20;;;2.90;92.70;;;;;;2121887;27;20019;-71
2021/12/04 00:30:16;;;;;;;12.68;7.40;;;2.90;92.90;;;;;;2121867;27;20454;-70
2021/12/04 00:31:17;;;;;;;14.15;8.20;;;2.80;93.00;;;;;;2121796;27;20030;-71
2021/12/04 00:32:40;;;;;;;14.70;8.43;;;2.80;93.00;;;;;;2121679;27;20101;-70
2021/12/04 00:33:44;;;;;;;14.63;8.13;;;2.80;93.20;;;;;;2122164;27;20034;-70
2021/12/04 00:34:49;;;;;;;12.93;7.43;;;2.70;93.30;;;;;;2122427;27;20395;-69
2021/12/04 00:35:58;;;;;;;11.60;7.32;;;2.70;93.20;;;;;;2121777;27;20045;-70
2021/12/04 00:37:17;;;;;;;16.38;8.40;;;2.70;93.60;;;;;;2121792;27;20046;-70
2021/12/04 00:50:04;;;;;;;13.32;9.40;;;2.70;95.10;;;;;;2122836;27;20784;-71
2021/12/04 00:51:05;;;;;;;14.27;9.75;;;2.60;95.30;;;;;;2122341;27;20037;-71
2021/12/04 00:52:06;;;;;;;15.85;9.80;;;2.60;95.50;;;;;;2121486;27;20066;-69
2021/12/04 00:53:06;;;;;;;15.80;10.38;;;2.70;96.20;;;;;;2122196;27;20030;-72
2021/12/04 00:54:10;;;;;;;15.30;10.30;;;2.70;96.00;;;;;;2122078;27;20092;-70
2021/12/04 00:55:10;;;;;;;15.73;10.00;;;2.70;96.30;;;;;;2122357;27;20063;-70
2021/12/04 00:56:11;;;;;;;16.42;10.02;;;2.70;96.80;;;;;;2121577;27;20084;-71
2021/12/04 00:57:12;;;;;;;13.65;9.60;;;2.70;96.70;;;;;;2113133;28;20035;-71
2021/12/04 00:58:13;;;;;;;14.75;9.80;;;2.70;96.60;;;;;;2121619;27;20019;-70
2021/12/04 00:59:14;;;;;;;14.90;9.73;;;2.70;96.50;;;;;;2122290;27;20034;-70
2021/12/04 01:00:14;;;;;;;16.10;10.10;;;2.70;96.50;;;;;;2122429;27;20061;-70
2021/12/04 01:01:19;;;;;;;15.95;9.55;;;2.70;96.40;;;;;;2122514;27;20127;-70
2021/12/04 01:02:20;;;;;;;14.27;9.80;;;2.70;96.50;;;;;;2121444;27;20023;-70
2021/12/04 01:03:21;;;;;;;14.43;9.70;;;2.70;96.10;;;;;;2122437;27;20051;-70
2021/12/04 01:04:22;;;;;;;14.27;9.80;;;2.70;96.00;;;;;;2122329;27;20050;-70
2021/12/04 01:05:23;;;;;;;14.93;9.90;;;2.70;95.90;;;;;;2122442;27;20476;-70
2021/12/04 01:06:24;;;;;;;15.43;10.20;;;2.70;95.90;;;;;;2122387;27;20023;-70
2021/12/04 01:07:25;;;;;;;13.88;9.32;;;2.70;96.00;;;;;;2122517;27;20512;-71
2021/12/04 01:08:25;;;;;;;13.90;9.02;;;2.70;96.40;;;;;;2122261;27;20106;-71
2021/12/04 01:09:26;;;;;;;13.10;8.93;;;2.70;96.30;;;;;;2122135;27;20023;-70
2021/12/04 01:10:27;;;;;;;14.05;9.27;;;2.70;95.90;;;;;;2121787;27;20153;-70
2021/12/04 01:11:28;;;;;;;14.35;9.40;;;2.70;95.90;;;;;;2120210;28;20023;-70
2021/12/04 01:12:28;;;;;;;12.30;8.77;;;2.70;95.90;;;;;;2122187;27;20495;-70
2021/12/04 01:13:30;;;;;;;12.65;8.85;;;2.70;95.60;;;;;;2121455;28;20019;-69
2021/12/04 01:14:34;;;;;;;13.15;9.18;;;2.70;95.70;;;;;;2121320;28;20383;-70
2021/12/04 01:15:34;;;;;;;14.35;9.25;;;2.70;95.80;;;;;;2122136;27;20114;-70
2021/12/04 01:16:35;;;;;;;12.43;9.38;;;2.60;96.00;;;;;;2122214;27;20019;-71
2021/12/04 01:17:36;;;;;;;22.98;10.70;;;2.60;96.50;;;;;;2122647;27;20462;-70
2021/12/04 01:18:37;;;;;;;15.27;9.75;;;2.60;96.50;;;;;;2124675;27;20035;-69
2021/12/04 01:19:38;;;;;;;15.27;9.93;;;2.60;96.50;;;;;;2125110;27;20111;-71
2021/12/04 01:20:39;;;;;;;17.45;9.82;;;2.60;96.50;;;;;;2125656;27;20503;-72
2021/12/04 01:21:40;;;;;;;14.73;9.85;;;2.60;96.70;;;;;;2127694;27;20059;-71
2021/12/04 01:22:41;;;;;;;13.45;9.57;;;2.60;96.70;;;;;;2123773;27;20216;-72
2021/12/04 01:23:42;;;;;;;15.18;9.32;;;2.60;96.60;;;;;;2122453;27;20031;-69
2021/12/04 01:24:42;;;;;;;14.63;9.35;;;2.60;96.30;;;;;;2122382;27;20481;-71
2021/12/04 01:25:44;;;;;;;16.25;10.68;;;2.60;96.40;;;;;;2122602;27;20031;-70
2021/12/04 01:26:45;;;;;;;16.50;10.35;;;2.60;97.00;;;;;;2122505;27;20039;-70
2021/12/04 01:27:46;;;;;;;16.58;10.70;;;2.60;97.30;;;;;;2121541;28;20087;-70
2021/12/04 01:28:47;;;;;;;16.27;10.80;;;2.60;97.10;;;;;;2121495;28;20031;-70
2021/12/04 01:29:47;;;;;;;15.05;9.88;;;2.60;97.10;;;;;;2122180;27;20114;-70
2021/12/04 01:30:48;;;;;;;14.73;10.13;;;2.60;97.10;;;;;;2122159;27;20167;-70
2021/12/04 01:31:49;;;;;;;15.95;10.80;;;2.60;97.10;;;;;;2120761;28;20026;-70
2021/12/04 01:32:49;;;;;;;15.80;10.40;;;2.60;97.00;;;;;;2121332;28;20119;-70
2021/12/04 01:33:50;;;;;;;14.93;10.27;;;2.60;96.90;;;;;;2122168;27;20536;-70
2021/12/04 01:34:51;;;;;;;21.20;12.98;;;2.60;96.90;;;;;;2122576;27;20023;-71
2021/12/04 01:35:52;;;;;;;19.52;12.35;;;2.60;96.70;;;;;;2122663;27;20034;-71
2021/12/04 01:36:52;;;;;;;19.17;11.93;;;2.60;96.80;;;;;;2122008;28;20031;-71
2021/12/04 01:37:53;;;;;;;19.10;12.00;;;2.60;96.70;;;;;;2121912;28;20148;-70
2021/12/04 01:38:53;;;;;;;16.67;10.77;;;2.60;96.70;;;;;;2121823;28;20624;-71
2021/12/04 01:39:54;;;;;;;16.85;10.45;;;2.60;96.70;;;;;;2122114;28;20032;-70
2021/12/04 01:40:55;;;;;;;15.25;10.35;;;2.60;96.40;;;;;;2122261;27;20027;-70
2021/12/04 01:41:56;;;;;;;14.88;9.90;;;2.60;96.40;;;;;;2121341;28;20504;-71
2021/12/04 01:42:57;;;;;;;12.60;9.15;;;2.60;96.40;;;;;;2121863;28;20624;-71
2021/12/04 01:43:59;;;;;;;13.38;9.10;;;2.60;96.50;;;;;;2121891;28;20027;-70
2021/12/04 01:45:00;;;;;;;14.02;9.68;;;2.60;96.50;;;;;;2114020;28;20469;-70
2021/12/04 01:46:00;;;;;;;14.35;9.73;;;2.60;96.50;;;;;;2121565;28;20027;-70
2021/12/04 01:47:13;;;;;;;13.13;9.40;;;2.60;96.30;;;;;;2122313;27;20433;-70
2021/12/04 01:48:14;;;;;;;13.65;9.63;;;2.60;96.20;;;;;;2122055;27;20685;-70
2021/12/04 01:49:15;;;;;;;13.80;9.15;;;2.60;96.20;;;;;;2122066;27;20034;-71
2021/12/04 01:50:16;;;;;;;11.73;8.80;;;2.60;96.20;;;;;;2122024;27;20027;-71
2021/12/04 01:51:16;;;;;;;12.50;8.50;;;2.60;96.20;;;;;;2121949;27;20063;-69
2021/12/04 01:52:18;;;;;;;13.57;8.30;;;2.60;96.20;;;;;;2121193;27;20039;-70
2021/12/04 01:53:19;;;;;;;12.13;8.82;;;2.60;96.10;;;;;;2121982;27;20038;-70
2021/12/04 01:54:21;;;;;;;11.07;8.27;;;2.60;96.10;;;;;;2121812;27;20042;-69
2021/12/04 01:55:30;;;;;;;11.52;7.97;;;2.60;96.00;;;;;;2122135;27;20084;-70
2021/12/04 01:56:33;;;;;;;11.18;8.50;;;2.60;96.00;;;;;;2121969;27;20059;-70
2021/12/04 01:57:34;;;;;;;10.73;7.85;;;2.60;95.90;;;;;;2122142;27;20506;-70
2021/12/04 01:58:36;;;;;;;12.10;8.23;;;2.60;96.00;;;;;;2122253;27;20023;-70
2021/12/04 01:59:36;;;;;;;10.50;7.78;;;2.60;96.10;;;;;;2121466;28;20031;-70
2021/12/04 02:00:39;;;;;;;11.45;7.90;;;2.60;96.20;;;;;;2113002;28;20030;-70
2021/12/04 02:01:40;;;;;;;11.02;8.02;;;2.60;96.20;;;;;;2112420;28;20028;-69
2021/12/04 02:02:41;;;;;;;10.82;7.40;;;2.50;96.10;;;;;;2121496;28;20117;-70
2021/12/04 02:03:41;;;;;;;10.57;7.60;;;2.60;96.20;;;;;;2121884;27;20027;-71
2021/12/04 02:04:42;;;;;;;10.13;7.47;;;2.60;96.40;;;;;;2121570;28;20589;-71
2021/12/04 02:05:44;;;;;;;10.32;7.45;;;2.50;96.50;;;;;;2121805;28;20044;-70
2021/12/04 02:06:44;;;;;;;10.57;7.78;;;2.50;96.50;;;;;;2121871;28;20033;-70
2021/12/04 02:07:46;;;;;;;10.00;7.40;;;2.50;96.50;;;;;;2122463;27;20399;-70
2021/12/04 02:08:46;;;;;;;11.50;7.80;;;2.50;96.40;;;;;;2121913;28;20107;-70
2021/12/04 02:09:47;;;;;;;10.13;7.32;;;2.50;96.30;;;;;;2122335;28;20026;-70
2021/12/04 02:10:52;;;;;;;12.32;8.00;;;2.50;96.40;;;;;;2123067;27;20043;-70
2021/12/04 02:11:52;;;;;;;11.35;7.90;;;2.50;96.40;;;;;;2123166;27;20105;-71
2021/12/04 02:12:53;;;;;;;11.82;8.55;;;2.50;96.40;;;;;;2124265;27;20123;-71
2021/12/04 02:13:53;;;;;;;12.13;8.63;;;2.50;96.60;;;;;;2124284;27;20027;-72
2021/12/04 02:14:54;;;;;;;14.07;9.13;;;2.50;96.80;;;;;;2122778;27;20050;-72
2021/12/04 02:15:55;;;;;;;13.93;8.70;;;2.50;96.70;;;;;;2122883;27;20095;-70
2021/12/04 02:16:56;;;;;;;14.15;9.07;;;2.50;96.70;;;;;;2123506;27;20038;-71
2021/12/04 02:17:57;;;;;;;15.30;9.88;;;2.50;96.70;;;;;;2124019;27;20019;-73
2021/12/04 02:18:58;;;;;;;18.35;11.07;;;2.50;96.50;;;;;;2124283;27;20019;-72
2021/12/04 02:19:59;;;;;;;17.13;9.77;;;2.50;96.40;;;;;;2123348;27;20027;-71
2021/12/04 02:21:00;;;;;;;15.93;10.25;;;2.50;96.60;;;;;;2123441;27;20022;-71
2021/12/04 02:22:01;;;;;;;15.13;9.52;;;2.50;96.50;;;;;;2121719;27;20031;-71
2021/12/04 02:23:03;;;;;;;15.88;9.73;;;2.50;96.50;;;;;;2123145;27;20039;-72
2021/12/04 02:24:04;;;;;;;14.93;9.43;;;2.50;96.40;;;;;;2125267;27;20080;-72
2021/12/04 02:25:07;;;;;;;15.05;9.45;;;2.50;96.50;;;;;;2125741;27;20527;-70
2021/12/04 02:26:08;;;;;;;16.25;10.48;;;2.60;96.50;;;;;;2125193;27;20776;-71
2021/12/04 02:27:10;;;;;;;14.27;9.45;;;2.60;96.10;;;;;;2123658;27;20114;-71
2021/12/04 02:28:11;;;;;;;12.98;8.95;;;2.60;96.00;;;;;;2123628;27;20028;-71
2021/12/04 02:29:12;;;;;;;14.35;9.43;;;2.60;96.20;;;;;;2124022;27;20110;-70
2021/12/04 02:30:18;;;;;;;14.13;8.77;;;2.60;96.20;;;;;;2123366;27;20023;-70
2021/12/04 02:31:19;;;;;;;13.27;8.98;;;2.60;96.30;;;;;;2123758;27;20698;-72
2021/12/04 02:32:20;;;;;;;12.95;8.85;;;2.60;96.20;;;;;;2122839;27;20034;-70
2021/12/04 02:33:21;;;;;;;12.65;8.32;;;2.60;96.20;;;;;;2123505;27;20035;-71
2021/12/04 02:34:23;;;;;;;14.45;9.80;;;2.60;96.50;;;;;;2124127;27;20042;-72
2021/12/04 02:35:25;;;;;;;17.25;10.30;;;2.60;96.20;;;;;;2123435;27;20393;-72
2021/12/04 02:36:27;;;;;;;16.48;11.40;;;2.60;96.20;;;;;;2123355;27;20065;-71
2021/12/04 02:37:27;;;;;;;14.40;10.43;;;2.60;96.50;;;;;;2115061;28;20027;-71
2021/12/04 02:38:28;;;;;;;18.33;11.95;;;2.60;96.60;;;;;;2115237;28;20516;-71
2021/12/04 02:39:33;;;;;;;17.23;11.45;;;2.60;96.70;;;;;;2123808;27;20684;-70
2021/12/04 02:40:34;;;;;;;16.17;10.75;;;2.60;96.70;;;;;;2123344;27;20091;-70
2021/12/04 02:41:34;;;;;;;19.20;11.13;;;2.50;96.80;;;;;;2122111;27;20441;-69
2021/12/04 02:42:35;;;;;;;16.88;10.88;;;2.50;96.80;;;;;;2123311;27;20028;-69
2021/12/04 02:43:36;;;;;;;16.27;10.35;;;2.50;96.70;;;;;;2123336;27;20062;-71
2021/12/04 02:44:40;;;;;;;15.20;10.68;;;2.60;96.60;;;;;;2123354;27;20152;-70
2021/12/04 02:45:42;;;;;;;15.27;10.60;;;2.60;96.70;;;;;;2123342;27;20023;-70
2021/12/04 02:46:43;;;;;;;15.63;11.00;;;2.60;96.70;;;;;;2123399;27;20035;-70
2021/12/04 02:47:44;;;;;;;16.75;11.02;;;2.60;96.90;;;;;;2123222;27;20424;-70
2021/12/04 02:48:46;;;;;;;14.65;10.57;;;2.60;97.00;;;;;;2122715;27;20038;-70
2021/12/04 02:49:47;;;;;;;15.80;10.75;;;2.50;97.00;;;;;;2122750;27;20031;-70
2021/12/04 02:50:48;;;;;;;14.55;10.43;;;2.50;97.00;;;;;;2123420;27;20023;-70
2021/12/04 02:51:48;;;;;;;15.05;10.05;;;2.50;97.00;;;;;;2122551;27;20035;-70
2021/12/04 02:52:49;;;;;;;14.95;10.48;;;2.50;97.20;;;;;;2122393;27;20055;-70
2021/12/04 02:53:49;;;;;;;16.48;10.80;;;2.50;97.20;;;;;;2122752;27;20035;-71
2021/12/04 02:54:51;;;;;;;16.15;10.38;;;2.50;97.20;;;;;;2125371;27;20023;-71
2021/12/04 02:55:53;;;;;;;14.73;10.45;;;2.50;97.40;;;;;;2124871;27;20506;-71
2021/12/04 02:56:53;;;;;;;15.75;10.35;;;2.50;97.60;;;;;;2124350;27;20399;-72
2021/12/04 02:57:54;;;;;;;15.38;10.43;;;2.50;97.50;;;;;;2122864;27;20023;-71
2021/12/04 02:59:01;;;;;;;15.60;10.30;;;2.50;97.40;;;;;;2123500;27;20019;-70
2021/12/04 03:00:03;;;;;;;15.93;10.63;;;2.50;97.70;;;;;;2123502;27;20102;-70
2021/12/04 03:01:04;;;;;;;14.65;10.18;;;2.50;97.60;;;;;;2123076;27;20015;-71
2021/12/04 03:02:06;;;;;;;14.88;10.57;;;2.50;97.30;;;;;;2122127;27;20034;-71
2021/12/04 03:03:07;;;;;;;15.70;10.82;;;2.50;97.40;;;;;;2123594;27;20827;-70
2021/12/04 03:04:09;;;;;;;15.05;10.15;;;2.40;97.60;;;;;;2123416;27;20023;-70
2021/12/04 03:05:11;;;;;;;15.57;10.25;;;2.50;97.70;;;;;;2127857;27;20531;-70
2021/12/04 03:06:12;;;;;;;14.85;9.90;;;2.50;97.60;;;;;;2129575;27;20034;-70
2021/12/04 03:07:13;;;;;;;13.85;9.93;;;2.50;97.60;;;;;;2128929;27;20058;-70
2021/12/04 03:08:13;;;;;;;14.20;9.70;;;2.40;97.60;;;;;;2125760;27;20106;-71
2021/12/04 03:09:15;;;;;;;14.38;9.85;;;2.40;97.60;;;;;;2124064;27;20392;-71
2021/12/04 03:10:16;;;;;;;15.50;10.77;;;2.40;97.70;;;;;;2124177;27;20053;-71
2021/12/04 03:11:17;;;;;;;17.13;10.77;;;2.40;97.80;;;;;;2123984;27;20379;-70
2021/12/04 03:12:19;;;;;;;15.43;10.93;;;2.40;97.80;;;;;;2122545;27;20478;-70
2021/12/04 03:13:21;;;;;;;17.70;10.75;;;2.40;97.80;;;;;;2123296;27;20023;-71
2021/12/04 03:14:22;;;;;;;14.65;10.25;;;2.40;97.80;;;;;;2123053;27;20027;-70
2021/12/04 03:15:22;;;;;;;15.68;10.10;;;2.40;98.00;;;;;;2123228;27;20023;-71
2021/12/04 03:16:24;;;;;;;14.45;10.52;;;2.40;97.90;;;;;;2123905;27;20061;-70
2021/12/04 03:17:26;;;;;;;15.88;11.13;;;2.40;98.10;;;;;;2123318;27;20035;-71
2021/12/04 03:18:27;;;;;;;14.23;10.40;;;2.40;98.10;;;;;;2122948;27;20044;-70
2021/12/04 03:19:28;;;;;;;16.88;10.98;;;2.40;98.10;;;;;;2123682;27;20682;-70
2021/12/04 03:20:29;;;;;;;17.23;11.57;;;2.40;98.10;;;;;;2123692;27;20039;-70
2021/12/04 03:21:31;;;;;;;17.73;11.43;;;2.40;98.00;;;;;;2123050;27;20034;-71
2021/12/04 03:22:32;;;;;;;16.73;10.57;;;2.40;98.00;;;;;;2123781;27;20031;-71
2021/12/04 03:23:40;;;;;;;16.08;11.25;;;2.40;98.20;;;;;;2123628;27;20043;-70
2021/12/04 03:24:43;;;;;;;13.77;10.43;;;2.40;98.20;;;;;;2123175;27;20470;-71
2021/12/04 03:25:47;;;;;;;15.48;10.60;;;2.40;98.00;;;;;;2123171;27;20035;-71
2021/12/04 03:26:50;;;;;;;18.30;11.65;;;2.40;98.10;;;;;;2123725;27;20075;-69
2021/12/04 03:27:51;;;;;;;15.63;10.85;;;2.40;98.00;;;;;;2123132;27;20027;-70
2021/12/04 03:28:54;;;;;;;16.83;11.57;;;2.40;98.10;;;;;;2122897;27;20031;-70
2021/12/04 03:30:05;;;;;;;15.80;10.88;;;2.40;98.10;;;;;;2123192;27;20015;-70
2021/12/04 03:31:12;;;;;;;15.40;11.15;;;2.40;98.10;;;;;;2123734;27;20063;-70
2021/12/04 03:32:37;;;;;;;16.95;11.02;;;2.40;98.20;;;;;;2123128;27;20449;-71
2021/12/04 03:41:33;;;;;;;15.55;10.75;;;2.40;98.30;;;;;;2121307;27;20027;-71
2021/12/04 03:42:35;;;;;;;18.30;11.63;;;2.50;98.20;;;;;;2122299;27;20046;-69
2021/12/04 03:43:36;;;;;;;15.15;10.80;;;2.50;98.20;;;;;;2122880;27;20016;-69
2021/12/04 03:44:37;;;;;;;17.05;11.55;;;2.50;98.20;;;;;;2122842;27;20043;-70
2021/12/04 03:45:41;;;;;;;17.17;12.15;;;2.40;98.40;;;;;;2122217;27;20031;-70
2021/12/04 03:46:44;;;;;;;18.80;12.30;;;2.50;98.30;;;;;;2122263;27;20026;-70
2021/12/04 03:47:48;;;;;;;18.20;12.23;;;2.50;98.30;;;;;;2122799;27;20054;-71
2021/12/04 03:49:51;;;;;;;18.08;11.77;;;2.50;98.40;;;;;;2122089;27;20344;-70
2021/12/04 03:50:51;;;;;;;17.88;12.20;;;2.50;98.40;;;;;;2122349;27;20031;-70
2021/12/04 03:51:52;;;;;;;18.63;12.07;;;2.50;98.30;;;;;;2121542;27;20034;-70
2021/12/04 03:52:53;;;;;;;16.85;11.75;;;2.40;98.40;;;;;;2122789;27;20119;-70
2021/12/04 03:53:55;;;;;;;17.88;11.98;;;2.50;98.30;;;;;;2128784;27;20039;-71
2021/12/04 03:54:55;;;;;;;16.77;12.10;;;2.50;98.30;;;;;;2130480;27;20011;-71
2021/12/04 03:55:56;;;;;;;18.02;11.80;;;2.40;98.30;;;;;;2130051;27;20027;-71
2021/12/04 03:57:04;;;;;;;17.35;11.55;;;2.50;98.40;;;;;;2119886;28;20032;-70
2021/12/04 03:58:04;;;;;;;19.35;12.52;;;2.50;98.50;;;;;;2122702;27;20011;-70
2021/12/04 03:59:05;;;;;;;16.65;11.90;;;2.50;98.60;;;;;;2122214;27;20660;-71
2021/12/04 04:00:06;;;;;;;16.05;11.63;;;2.50;98.70;;;;;;2113473;28;20119;-70
2021/12/04 04:01:12;;;;;;;16.20;11.45;;;2.40;98.80;;;;;;2122111;27;20066;-69
2021/12/04 04:02:15;;;;;;;18.63;12.18;;;2.40;98.80;;;;;;2121921;27;20031;-69
2021/12/04 04:03:16;;;;;;;17.10;12.05;;;2.40;99.20;;;;;;2122574;27;20650;-71
2021/12/04 04:04:16;;;;;;;18.70;12.05;;;2.50;98.80;;;;;;2122910;27;20023;-71
2021/12/04 04:05:17;;;;;;;18.55;12.25;;;2.50;99.10;;;;;;2123007;27;20463;-71
2021/12/04 04:06:17;;;;;;;17.77;12.05;;;2.50;99.00;;;;;;2122875;27;20034;-72
2021/12/04 04:07:18;;;;;;;16.02;11.68;;;2.50;99.20;;;;;;2122323;27;20058;-70
2021/12/04 04:08:19;;;;;;;18.00;12.23;;;2.40;99.20;;;;;;2122238;27;20110;-71
2021/12/04 04:09:20;;;;;;;18.90;12.38;;;2.50;99.10;;;;;;2122977;27;20086;-71
2021/12/04 04:10:21;;;;;;;15.95;11.60;;;2.50;99.30;;;;;;2122942;27;20039;-71
2021/12/04 04:11:22;;;;;;;16.60;11.43;;;2.50;99.00;;;;;;2122915;27;20480;-70
2021/12/04 04:12:22;;;;;;;17.00;11.75;;;2.50;99.00;;;;;;2122026;27;20106;-71
2021/12/04 04:13:23;;;;;;;19.73;13.07;;;2.50;99.10;;;;;;2122716;27;20464;-70
2021/12/04 04:14:25;;;;;;;18.65;13.50;;;2.50;99.20;;;;;;2122606;27;20028;-69
2021/12/04 04:15:25;;;;;;;18.42;13.20;;;2.50;99.30;;;;;;2122626;27;20543;-70
2021/12/04 04:16:26;;;;;;;18.75;13.00;;;2.50;99.10;;;;;;2122557;27;20019;-70
2021/12/04 04:17:31;;;;;;;17.23;12.70;;;2.50;99.20;;;;;;2122080;27;20396;-71
2021/12/04 04:18:32;;;;;;;18.77;11.80;;;2.50;99.40;;;;;;2121897;27;20023;-70
2021/12/04 04:19:33;;;;;;;17.98;12.13;;;2.50;99.50;;;;;;2122658;27;20514;-69
2021/12/04 04:20:33;;;;;;;19.55;12.98;;;2.50;99.50;;;;;;2122093;27;20019;-69
2021/12/04 04:21:39;;;;;;;17.92;12.85;;;2.50;99.40;;;;;;2121185;27;20027;-71
2021/12/04 04:22:41;;;;;;;18.45;13.27;;;2.50;99.50;;;;;;2122554;27;20506;-70
2021/12/04 04:23:41;;;;;;;18.65;13.00;;;2.50;99.50;;;;;;2122461;27;20578;-70
2021/12/04 04:24:42;;;;;;;17.25;11.65;;;2.50;99.70;;;;;;2122519;27;20043;-70
2021/12/04 04:25:43;;;;;;;16.60;12.05;;;2.40;99.80;;;;;;2122566;27;20072;-69
2021/12/04 04:26:44;;;;;;;17.75;12.57;;;2.40;99.70;;;;;;2122335;27;20536;-70
2021/12/04 04:27:45;;;;;;;17.67;12.80;;;2.50;99.60;;;;;;2113322;27;20488;-69
2021/12/04 04:28:46;;;;;;;18.38;12.73;;;2.50;99.50;;;;;;2113301;28;20042;-70
2021/12/04 04:29:46;;;;;;;18.42;12.43;;;2.50;99.80;;;;;;2122527;27;20027;-69
2021/12/04 04:30:47;;;;;;;17.63;12.52;;;2.50;99.90;;;;;;2122334;27;20093;-69
2021/12/04 04:31:49;;;;;;;19.40;13.15;;;2.50;99.70;;;;;;2120973;27;20062;-69
2021/12/04 04:32:51;;;;;;;18.80;12.65;;;2.50;99.80;;;;;;2121667;27;20031;-69
2021/12/04 04:33:57;;;;;;;18.55;12.07;;;2.50;99.60;;;;;;2122289;27;20030;-70
2021/12/04 04:35:07;;;;;;;16.98;11.93;;;2.50;99.60;;;;;;2121645;27;20035;-69
2021/12/04 04:37:43;;;;;;;17.90;12.18;;;2.50;99.60;;;;;;2122427;27;20035;-70
2021/12/04 04:38:51;;;;;;;17.00;12.15;;;2.50;99.60;;;;;;2122445;27;20023;-70
2021/12/04 05:11:10;;;;;;;14.82;10.43;;;2.50;99.90;;;;;;2122167;27;20023;-70
2021/12/04 05:12:18;;;;;;;15.73;10.95;;;2.50;99.90;;;;;;2121284;27;20127;-70
2021/12/04 05:13:21;;;;;;;16.55;10.50;;;2.50;99.90;;;;;;2122170;27;20034;-69
2021/12/04 05:14:22;;;;;;;14.95;10.75;;;2.50;99.90;;;;;;2122210;27;20039;-69
2021/12/04 05:15:36;;;;;;;16.77;11.43;;;2.50;99.90;;;;;;2113062;28;20069;-69
2021/12/04 05:16:45;;;;;;;16.55;10.88;;;2.50;99.90;;;;;;2115317;28;20028;-71
2021/12/04 05:18:58;;;;;;;16.38;10.85;;;2.50;99.90;;;;;;2121567;27;20028;-70
2021/12/04 05:19:59;;;;;;;15.80;11.25;;;2.50;99.90;;;;;;2121709;28;20039;-71
2021/12/04 05:21:05;;;;;;;17.13;11.07;;;2.40;99.90;;;;;;2121625;28;20054;-70
2021/12/04 05:22:08;;;;;;;17.80;12.25;;;2.40;99.90;;;;;;2121243;27;20407;-70
2021/12/04 05:23:10;;;;;;;20.33;12.88;;;2.30;99.90;;;;;;2122159;27;20023;-70
2021/12/04 05:24:11;;;;;;;23.90;14.77;;;2.30;99.90;;;;;;2122343;27;20026;-70
2021/12/04 05:25:12;;;;;;;21.60;14.30;;;2.20;99.90;;;;;;2122170;27;20034;-70
2021/12/04 05:26:16;;;;;;;19.35;13.55;;;2.20;99.90;;;;;;2122172;27;20475;-69
2021/12/04 05:27:17;;;;;;;19.95;13.18;;;2.20;99.90;;;;;;2122185;27;20781;-69
2021/12/04 05:28:18;;;;;;;25.38;16.15;;;2.20;99.90;;;;;;2121471;28;20089;-70
2021/12/04 05:29:18;;;;;;;21.08;14.35;;;2.20;99.90;;;;;;2121701;28;20015;-70
2021/12/04 05:30:19;;;;;;;20.00;13.73;;;2.10;99.90;;;;;;2121727;28;20051;-70
2021/12/04 05:31:20;;;;;;;23.65;15.32;;;2.10;99.90;;;;;;2121917;28;20030;-71
2021/12/04 05:32:21;;;;;;;23.02;15.30;;;2.10;99.90;;;;;;2121832;27;20160;-71
2021/12/04 05:33:21;;;;;;;23.98;14.48;;;2.00;99.90;;;;;;2122329;27;20023;-70
2021/12/04 05:34:22;;;;;;;21.90;14.27;;;2.00;99.90;;;;;;2122461;27;20691;-70
2021/12/04 05:35:23;;;;;;;19.02;13.75;;;2.00;99.90;;;;;;2122496;27;20035;-71
2021/12/04 05:36:24;;;;;;;20.67;15.13;;;2.00;99.90;;;;;;2122473;27;20110;-71
2021/12/04 05:37:24;;;;;;;22.38;15.45;;;2.00;99.90;;;;;;2121869;28;20076;-71
2021/12/04 05:38:25;;;;;;;23.02;15.38;;;2.00;99.90;;;;;;2121677;28;20027;-71
2021/12/04 05:39:26;;;;;;;21.83;14.77;;;1.90;99.90;;;;;;2122710;27;20031;-70
2021/12/04 05:40:27;;;;;;;19.77;14.00;;;1.90;99.90;;;;;;2122867;27;20072;-70
2021/12/04 05:41:28;;;;;;;24.30;16.60;;;1.80;99.90;;;;;;2121756;28;20059;-72
2021/12/04 05:42:30;;;;;;;22.67;15.50;;;1.80;99.90;;;;;;2113707;28;20593;-71
2021/12/04 05:43:31;;;;;;;21.42;15.00;;;1.80;99.90;;;;;;2121449;28;20031;-71
2021/12/04 05:44:33;;;;;;;23.13;15.13;;;1.80;99.90;;;;;;2122098;27;20039;-71
2021/12/04 05:45:45;;;;;;;23.48;15.70;;;1.80;99.90;;;;;;2121920;27;20070;-70
2021/12/04 05:48:12;;;;;;;24.75;15.15;;;1.70;99.90;;;;;;2117833;27;20468;-71
2021/12/04 05:49:18;;;;;;;22.40;15.57;;;1.70;99.90;;;;;;2121390;27;20057;-71
2021/12/04 05:55:24;;;;;;;23.77;14.18;;;1.60;99.90;;;;;;2112297;28;20028;-70
2021/12/04 05:56:26;;;;;;;23.00;14.90;;;1.60;99.90;;;;;;2119913;27;20534;-70
2021/12/04 05:57:27;;;;;;;21.88;14.70;;;1.50;99.90;;;;;;2122838;27;20015;-70
2021/12/04 05:58:32;;;;;;;25.13;15.15;;;1.50;99.90;;;;;;2122988;27;20070;-71
2021/12/04 05:59:33;;;;;;;41.72;31.13;;;1.50;99.90;;;;;;2123453;27;20475;-71
2021/12/04 06:00:34;;;;;;;45.38;32.15;;;1.50;99.90;;;;;;2123447;27;20023;-71
2021/12/04 06:01:34;;;;;;;40.10;26.63;;;1.50;99.90;;;;;;2122825;27;20035;-70
2021/12/04 06:02:35;;;;;;;34.83;24.80;;;1.50;99.90;;;;;;2123470;27;20109;-70
2021/12/04 06:03:36;;;;;;;33.25;21.50;;;1.40;99.90;;;;;;2123652;27;20063;-70
2021/12/04 06:04:37;;;;;;;28.25;19.30;;;1.40;99.90;;;;;;2123419;27;20048;-71
2021/12/04 06:05:38;;;;;;;27.08;18.15;;;1.40;99.90;;;;;;2123610;27;20024;-71
2021/12/04 06:06:38;;;;;;;23.17;15.90;;;1.40;99.90;;;;;;2123263;27;20034;-71
2021/12/04 06:07:39;;;;;;;23.30;15.73;;;1.40;99.90;;;;;;2123518;27;20112;-71
2021/12/04 06:08:41;;;;;;;25.40;16.33;;;1.40;99.90;;;;;;2123103;27;20032;-71
2021/12/04 06:09:41;;;;;;;24.88;15.93;;;1.40;99.90;;;;;;2123378;27;20642;-71
2021/12/04 06:10:42;;;;;;;24.23;15.90;;;1.40;99.90;;;;;;2123919;27;20033;-71
2021/12/04 06:11:43;;;;;;;23.40;15.07;;;1.40;99.90;;;;;;2122520;27;20060;-71
2021/12/04 06:12:44;;;;;;;24.35;15.60;;;1.40;99.90;;;;;;2114202;28;20023;-70
2021/12/04 06:13:45;;;;;;;23.98;15.57;;;1.40;99.90;;;;;;2114514;28;20055;-70
2021/12/04 06:14:48;;;;;;;26.02;16.10;;;1.40;99.90;;;;;;2123459;27;20023;-70
2021/12/04 06:15:50;;;;;;;24.67;15.82;;;1.40;99.90;;;;;;2123574;27;20115;-70
2021/12/04 06:16:50;;;;;;;24.10;15.65;;;1.30;99.90;;;;;;2123641;27;20027;-70
2021/12/04 06:17:54;;;;;;;25.65;15.73;;;1.30;99.90;;;;;;2123237;27;20019;-70
2021/12/04 06:18:57;;;;;;;22.80;14.90;;;1.30;99.90;;;;;;2122861;27;20047;-70
2021/12/04 06:22:37;;;;;;;25.00;16.23;;;1.30;99.90;;;;;;2123640;27;20027;-70
2021/12/04 06:23:38;;;;;;;24.92;15.80;;;1.30;99.90;;;;;;2123919;27;20432;-70